Cotia, Brazil
Current Conditions -  °F | °C
As of 6:00 AM on Sunday 21 Dec 2014 (Local Time) from SBCY Reporting Station
Clear Clear  
Wind Chill: 79°   Ceiling: Unl
Heat Index: 82°   Visibility: 6mi
Dew Point: 72°   Wind: 10mph
Humidity: 78%   Direction: 10°N
Pressure: 29.8"   Gusts: NA
Location:  15.97°S, 56.47°W
Report Text: SBCY 210900Z 01009KT CAVOK 26/22 Q1009
Loading
Personal Weather Stations






























Interactive Weather Map New forecast layout! Learn more

10-Day Weather Forecast

Advertisements
Track Severe Weather on mobile